Time;durP1;ratioP1;P1;durP2;ratioP2;P2;SDS_P1;SDS_P2;PMS_P1;PMS_P2;Temp;Humidity;BMP_temperature;BMP_pressure;BME280_temperature;BME280_humidity;BME280_pressure;Samples;Min_cycle;Max_cycle;Signal;HPM_P1;HPM_P2
2022/08/26 00:01:11;;;;;;;18.98;8.40;;;20.80;99.90;;;;;;5059637;28;20031;-83
2022/08/26 00:03:38;;;;;;;20.92;10.02;;;20.80;99.90;;;;;;5062439;28;20366;-83
2022/08/26 00:06:04;;;;;;;16.95;9.02;;;20.80;99.90;;;;;;5055559;28;20063;-83
2022/08/26 00:08:30;;;;;;;14.45;8.82;;;20.80;99.90;;;;;;5063249;28;20052;-83
2022/08/26 00:10:56;;;;;;;31.75;10.63;;;20.80;99.90;;;;;;5051473;28;20036;-83
2022/08/26 00:13:21;;;;;;;35.80;10.68;;;20.80;99.90;;;;;;5054395;28;20074;-82
2022/08/26 00:15:49;;;;;;;30.20;10.32;;;20.80;99.90;;;;;;5054596;28;20396;-83
2022/08/26 00:18:14;;;;;;;28.45;9.77;;;20.80;99.90;;;;;;5062035;28;20029;-83
2022/08/26 00:20:40;;;;;;;28.45;11.68;;;20.70;99.90;;;;;;5060674;28;20028;-83
2022/08/26 00:23:06;;;;;;;29.83;11.15;;;20.70;99.90;;;;;;5057405;28;20029;-83
2022/08/26 00:25:32;;;;;;;29.15;11.25;;;20.70;99.90;;;;;;5059975;28;20087;-82
2022/08/26 00:27:57;;;;;;;26.88;10.98;;;20.70;99.90;;;;;;5061793;28;20119;-83
2022/08/26 00:30:25;;;;;;;29.50;11.68;;;20.60;99.90;;;;;;5054369;28;20128;-83
2022/08/26 00:32:51;;;;;;;27.15;11.05;;;20.60;99.90;;;;;;5056792;28;20041;-82
2022/08/26 00:35:18;;;;;;;32.53;11.18;;;20.60;99.90;;;;;;5062330;28;20082;-82
2022/08/26 00:37:44;;;;;;;40.10;11.90;;;20.60;99.90;;;;;;5055603;28;20135;-82
2022/08/26 00:40:26;;;;;;;35.75;11.50;;;20.60;99.90;;;;;;5056091;28;20497;-82
2022/08/26 00:42:52;;;;;;;38.40;10.48;;;20.60;99.90;;;;;;5053904;28;20408;-82
2022/08/26 00:45:18;;;;;;;25.10;10.93;;;20.60;99.90;;;;;;5050541;28;20082;-82
2022/08/26 00:47:47;;;;;;;51.30;12.85;;;20.60;99.90;;;;;;5053266;28;20469;-82
2022/08/26 00:50:17;;;;;;;33.75;10.80;;;20.60;99.90;;;;;;5061058;28;20059;-82
2022/08/26 00:52:44;;;;;;;41.83;12.63;;;20.50;99.90;;;;;;5054235;28;20080;-82
2022/08/26 00:55:15;;;;;;;31.40;10.63;;;20.50;99.90;;;;;;5056442;28;20103;-82
2022/08/26 00:57:42;;;;;;;23.13;10.38;;;20.50;99.90;;;;;;5060415;28;20047;-82
2022/08/26 01:00:15;;;;;;;27.45;11.77;;;20.40;99.90;;;;;;5055946;28;20045;-82
2022/08/26 01:02:41;;;;;;;38.70;12.00;;;20.40;99.90;;;;;;5065055;28;20063;-82
2022/08/26 01:05:10;;;;;;;34.13;12.07;;;20.40;99.90;;;;;;5059572;28;20024;-82
2022/08/26 01:07:36;;;;;;;21.70;10.38;;;20.40;99.90;;;;;;5062669;28;20033;-82
2022/08/26 01:10:06;;;;;;;21.73;10.25;;;20.40;99.90;;;;;;5057416;28;20377;-82
2022/08/26 01:12:37;;;;;;;25.33;10.43;;;20.40;99.90;;;;;;5061529;28;20051;-82
2022/08/26 01:15:04;;;;;;;23.23;10.10;;;20.40;99.90;;;;;;5059473;28;20079;-82
2022/08/26 01:17:30;;;;;;;33.80;12.02;;;20.30;99.90;;;;;;5061568;28;20021;-82
2022/08/26 01:20:11;;;;;;;25.38;10.85;;;20.40;99.90;;;;;;5060121;28;20044;-82
2022/08/26 01:22:59;;;;;;;42.88;13.32;;;20.30;99.90;;;;;;5058234;28;20469;-82
2022/08/26 01:25:28;;;;;;;35.47;11.80;;;20.30;99.90;;;;;;5065504;28;20381;-82
2022/08/26 01:27:56;;;;;;;42.78;13.90;;;20.20;99.90;;;;;;5052453;28;20025;-82
2022/08/26 01:30:23;;;;;;;32.53;13.05;;;20.20;99.90;;;;;;5056976;28;20067;-82
2022/08/26 01:32:50;;;;;;;38.38;12.70;;;20.20;99.90;;;;;;5052852;28;20040;-82
2022/08/26 01:35:17;;;;;;;31.25;12.05;;;20.10;99.90;;;;;;5052328;28;20115;-82
2022/08/26 01:37:43;;;;;;;22.00;11.02;;;20.10;99.90;;;;;;5058335;28;20021;-82
2022/08/26 01:40:15;;;;;;;22.60;11.40;;;20.10;99.90;;;;;;5053889;28;20024;-82
2022/08/26 01:42:41;;;;;;;31.25;10.98;;;20.10;99.90;;;;;;5050383;28;20505;-82
2022/08/26 01:45:14;;;;;;;40.67;12.55;;;20.10;99.90;;;;;;5058638;28;20032;-82
2022/08/26 01:47:41;;;;;;;29.05;12.50;;;20.10;99.90;;;;;;5058321;28;20032;-82
2022/08/26 01:50:13;;;;;;;24.15;11.68;;;20.00;99.90;;;;;;5061585;28;20426;-82
2022/08/26 01:52:41;;;;;;;15.85;9.35;;;19.90;99.90;;;;;;5061249;28;20473;-82
2022/08/26 01:55:07;;;;;;;24.65;10.38;;;19.90;99.90;;;;;;5065776;28;20020;-82
2022/08/26 01:57:35;;;;;;;29.83;11.55;;;19.90;99.90;;;;;;5059349;28;20103;-82
2022/08/26 02:00:05;;;;;;;29.58;12.43;;;19.90;99.90;;;;;;5063927;28;20024;-82
2022/08/26 02:02:30;;;;;;;27.50;11.85;;;19.90;99.90;;;;;;5055026;28;20025;-82
2022/08/26 02:05:00;;;;;;;27.42;12.15;;;19.90;99.90;;;;;;5061135;28;20385;-82
2022/08/26 02:07:26;;;;;;;30.35;12.52;;;19.80;99.90;;;;;;5067735;28;20021;-81
2022/08/26 02:09:52;;;;;;;24.75;11.82;;;19.80;99.90;;;;;;5053782;28;20025;-82
2022/08/26 02:12:19;;;;;;;20.02;11.43;;;19.80;99.90;;;;;;5064743;28;20043;-81
2022/08/26 02:14:50;;;;;;;26.15;11.75;;;19.70;99.90;;;;;;5059792;28;20480;-82
2022/08/26 02:17:22;;;;;;;26.80;13.75;;;19.70;99.90;;;;;;5062775;28;20052;-82
2022/08/26 02:19:49;;;;;;;25.48;10.68;;;19.70;99.90;;;;;;5062031;28;20212;-82
2022/08/26 02:22:18;;;;;;;20.00;10.75;;;19.70;99.90;;;;;;5063115;28;20025;-82
2022/08/26 02:25:13;;;;;;;20.98;11.77;;;19.60;99.90;;;;;;5056417;28;20032;-82
2022/08/26 02:27:39;;;;;;;28.83;11.68;;;19.60;99.90;;;;;;5052983;28;20045;-82
2022/08/26 02:30:19;;;;;;;26.60;11.70;;;19.50;99.90;;;;;;5054163;28;20155;-82
2022/08/26 02:32:48;;;;;;;24.42;11.90;;;19.50;99.90;;;;;;5063276;28;20040;-82
2022/08/26 02:35:15;;;;;;;24.10;12.05;;;19.50;99.90;;;;;;5061425;28;20028;-82
2022/08/26 02:37:41;;;;;;;15.32;9.88;;;19.50;99.90;;;;;;5060613;28;20082;-82
2022/08/26 02:40:10;;;;;;;24.73;12.05;;;19.50;99.90;;;;;;5061232;28;20029;-82
2022/08/26 02:42:36;;;;;;;33.53;12.23;;;19.50;99.90;;;;;;5064660;28;20016;-82
2022/08/26 02:45:02;;;;;;;27.85;12.30;;;19.50;99.90;;;;;;5065784;28;20152;-82
2022/08/26 02:47:28;;;;;;;32.63;12.60;;;19.50;99.90;;;;;;5060162;28;20021;-82
2022/08/26 02:49:54;;;;;;;25.50;12.15;;;19.40;99.90;;;;;;5053687;28;20392;-82
2022/08/26 02:52:20;;;;;;;41.92;14.05;;;19.40;99.90;;;;;;5066196;28;20044;-82
2022/08/26 02:54:46;;;;;;;30.85;12.70;;;19.40;99.90;;;;;;5061230;28;20162;-82
2022/08/26 02:57:11;;;;;;;16.55;10.55;;;19.30;99.90;;;;;;5062944;28;20536;-82
2022/08/26 02:59:38;;;;;;;22.70;11.32;;;19.30;99.90;;;;;;5061938;28;20031;-82
2022/08/26 03:02:05;;;;;;;32.28;13.00;;;19.30;99.90;;;;;;5059206;28;20032;-82
2022/08/26 03:04:31;;;;;;;27.20;12.73;;;19.30;99.90;;;;;;5056360;28;20174;-81
2022/08/26 03:06:57;;;;;;;19.38;11.32;;;19.30;99.90;;;;;;5053248;28;20029;-82
2022/08/26 03:09:23;;;;;;;22.42;11.00;;;19.30;99.90;;;;;;5065529;28;20033;-82
2022/08/26 03:11:50;;;;;;;28.25;11.93;;;19.30;99.90;;;;;;5057345;28;20024;-82
2022/08/26 03:14:15;;;;;;;28.73;13.23;;;19.30;99.90;;;;;;5068805;28;20500;-82
2022/08/26 03:16:41;;;;;;;34.72;14.25;;;19.30;99.90;;;;;;5054425;28;20024;-82
2022/08/26 03:19:08;;;;;;;28.02;11.98;;;19.30;99.90;;;;;;5060264;28;20032;-82
2022/08/26 03:21:35;;;;;;;27.88;13.18;;;19.20;99.90;;;;;;5053455;28;20036;-82
2022/08/26 03:24:01;;;;;;;27.05;12.98;;;19.20;99.90;;;;;;5064516;28;20036;-82
2022/08/26 03:26:27;;;;;;;19.83;10.98;;;19.20;99.90;;;;;;5066148;28;20029;-82
2022/08/26 03:31:38;;;;;;;41.30;14.25;;;19.20;99.90;;;;;;5050850;28;20536;-82
2022/08/26 03:34:04;;;;;;;19.85;11.68;;;19.20;99.90;;;;;;5057580;28;20045;-82
2022/08/26 03:36:30;;;;;;;19.88;12.65;;;19.10;99.90;;;;;;5061148;28;20025;-82
2022/08/26 03:38:56;;;;;;;23.05;11.13;;;19.10;99.90;;;;;;5064449;28;20048;-82
2022/08/26 03:41:22;;;;;;;20.67;11.50;;;19.20;99.90;;;;;;5058392;28;20326;-82
2022/08/26 03:43:49;;;;;;;19.55;11.38;;;19.10;99.90;;;;;;5050538;28;20028;-82
2022/08/26 03:46:15;;;;;;;19.10;11.43;;;19.10;99.90;;;;;;5063964;28;20028;-82
2022/08/26 03:48:41;;;;;;;21.17;11.32;;;19.10;99.90;;;;;;5060236;28;20032;-82
2022/08/26 03:51:15;;;;;;;32.47;13.90;;;19.10;99.90;;;;;;5059245;28;20090;-82
2022/08/26 03:53:40;;;;;;;33.78;13.60;;;19.10;99.90;;;;;;5059113;28;20057;-82
2022/08/26 03:56:06;;;;;;;26.40;13.50;;;19.00;99.90;;;;;;5060391;28;20039;-82
2022/08/26 03:58:32;;;;;;;25.35;12.52;;;19.00;99.90;;;;;;5053554;28;20028;-82
2022/08/26 04:00:58;;;;;;;16.08;10.88;;;19.00;99.90;;;;;;5057154;28;20075;-82
2022/08/26 04:06:09;;;;;;;26.60;12.57;;;19.00;99.90;;;;;;5064096;28;20427;-82
2022/08/26 04:08:35;;;;;;;32.38;13.90;;;19.00;99.90;;;;;;5052954;28;20029;-82
2022/08/26 04:11:01;;;;;;;29.92;13.60;;;18.90;99.90;;;;;;5057443;28;20031;-82
2022/08/26 04:13:27;;;;;;;37.45;14.18;;;18.90;99.90;;;;;;5051558;28;20072;-82
2022/08/26 04:15:53;;;;;;;28.33;14.23;;;18.90;99.90;;;;;;5059826;28;20037;-82
2022/08/26 04:18:19;;;;;;;24.95;12.40;;;18.90;99.90;;;;;;5061381;28;20362;-82
2022/08/26 04:20:46;;;;;;;25.80;12.40;;;18.90;99.90;;;;;;5059649;28;20028;-82
2022/08/26 04:23:12;;;;;;;27.40;13.10;;;18.90;99.90;;;;;;5064830;28;20028;-82
2022/08/26 04:25:38;;;;;;;32.80;14.00;;;18.90;99.90;;;;;;5058425;28;20485;-82
2022/08/26 04:28:04;;;;;;;30.25;14.80;;;18.90;99.90;;;;;;5061790;28;20021;-82
2022/08/26 04:30:30;;;;;;;23.70;12.45;;;18.80;99.90;;;;;;5056991;28;20227;-82
2022/08/26 04:32:55;;;;;;;18.05;11.65;;;18.80;99.90;;;;;;5064186;28;20036;-82
2022/08/26 04:35:21;;;;;;;16.90;10.88;;;18.90;99.90;;;;;;5062472;28;20511;-82
2022/08/26 04:37:48;;;;;;;16.35;11.63;;;18.90;99.90;;;;;;5056501;28;20057;-82
2022/08/26 04:40:13;;;;;;;18.95;11.82;;;19.00;99.90;;;;;;5058668;28;20021;-82
2022/08/26 04:42:39;;;;;;;20.15;11.15;;;19.00;99.90;;;;;;5059742;28;20028;-82
2022/08/26 04:45:05;;;;;;;18.27;12.35;;;19.00;99.90;;;;;;5061856;28;20055;-82
2022/08/26 04:47:31;;;;;;;22.00;11.15;;;19.00;99.90;;;;;;5058904;28;20037;-82
2022/08/26 04:49:56;;;;;;;26.55;11.40;;;19.00;99.90;;;;;;5066387;28;20488;-82
2022/08/26 04:52:23;;;;;;;23.60;11.93;;;19.00;99.90;;;;;;5065519;28;20500;-82
2022/08/26 04:54:48;;;;;;;25.60;12.38;;;19.10;99.90;;;;;;5065096;28;20024;-82
2022/08/26 04:57:14;;;;;;;26.63;14.15;;;19.00;99.90;;;;;;5058667;28;20025;-82
2022/08/26 04:59:40;;;;;;;23.45;14.18;;;19.00;99.90;;;;;;5060272;28;20141;-82
2022/08/26 05:02:06;;;;;;;21.38;11.95;;;19.00;99.90;;;;;;5062430;28;20494;-82
2022/08/26 05:04:32;;;;;;;16.23;11.55;;;19.00;99.90;;;;;;5063937;28;20485;-82
2022/08/26 05:06:57;;;;;;;26.48;12.48;;;19.10;99.90;;;;;;5060915;28;20065;-82
2022/08/26 05:09:24;;;;;;;30.27;14.40;;;19.10;99.90;;;;;;5059873;28;20027;-82
2022/08/26 05:11:50;;;;;;;24.25;12.82;;;19.10;99.90;;;;;;5063096;28;20033;-82
2022/08/26 05:14:16;;;;;;;20.33;12.32;;;19.20;99.90;;;;;;5054067;28;20037;-82
2022/08/26 05:16:42;;;;;;;27.80;12.48;;;19.20;99.90;;;;;;5064608;28;20028;-83
2022/08/26 05:19:11;;;;;;;25.08;12.95;;;19.30;99.90;;;;;;5063733;28;20029;-82
2022/08/26 05:21:37;;;;;;;31.13;14.15;;;19.30;99.90;;;;;;5067410;28;20017;-82
2022/08/26 05:24:03;;;;;;;29.25;13.50;;;19.30;99.90;;;;;;5056607;28;20037;-82
2022/08/26 05:26:30;;;;;;;29.17;13.13;;;19.40;99.90;;;;;;5063351;28;20029;-82
2022/08/26 05:28:56;;;;;;;28.33;13.27;;;19.40;99.90;;;;;;5059040;28;20028;-82
2022/08/26 05:31:33;;;;;;;25.63;12.65;;;19.40;99.90;;;;;;5058423;28;20036;-82
2022/08/26 05:34:02;;;;;;;14.98;11.48;;;19.50;99.90;;;;;;5061261;28;20036;-82
2022/08/26 05:36:30;;;;;;;20.65;11.98;;;19.50;99.90;;;;;;5063546;28;20035;-82
2022/08/26 05:38:56;;;;;;;27.50;12.88;;;19.50;99.90;;;;;;5069444;28;20029;-82
2022/08/26 05:41:33;;;;;;;26.13;13.88;;;19.50;99.90;;;;;;5064107;28;20047;-82
2022/08/26 05:44:00;;;;;;;39.63;16.15;;;19.60;99.90;;;;;;5060357;28;20099;-82
2022/08/26 05:46:26;;;;;;;41.70;16.40;;;19.60;99.90;;;;;;5064680;28;20117;-82
2022/08/26 05:48:53;;;;;;;36.17;14.57;;;19.70;99.90;;;;;;5061347;28;20434;-83
2022/08/26 05:51:20;;;;;;;21.95;13.63;;;19.80;99.90;;;;;;5063661;28;20029;-83
2022/08/26 05:53:46;;;;;;;24.20;14.13;;;19.80;99.90;;;;;;5060361;28;20076;-83
2022/08/26 05:56:12;;;;;;;29.75;15.02;;;19.90;99.90;;;;;;5057913;28;20057;-83
2022/08/26 05:58:40;;;;;;;28.15;13.65;;;19.90;99.90;;;;;;5056965;28;20477;-82
2022/08/26 06:01:09;;;;;;;36.30;16.42;;;20.00;99.90;;;;;;5078306;28;20021;-83
2022/08/26 06:03:37;;;;;;;34.67;14.93;;;20.10;99.90;;;;;;5056546;28;20025;-83
2022/08/26 06:06:05;;;;;;;34.15;15.25;;;20.10;99.90;;;;;;5065749;28;20032;-82
2022/08/26 06:08:31;;;;;;;32.75;15.13;;;20.20;99.90;;;;;;5062518;28;20258;-82
2022/08/26 06:11:00;;;;;;;37.05;14.73;;;20.30;99.90;;;;;;5063723;28;20024;-82
2022/08/26 06:13:28;;;;;;;25.63;13.75;;;20.30;99.90;;;;;;5064363;28;20044;-82
2022/08/26 06:15:54;;;;;;;23.80;13.10;;;20.40;99.90;;;;;;5062249;28;20033;-82
2022/08/26 06:18:23;;;;;;;24.73;14.20;;;20.30;99.90;;;;;;5066955;28;20031;-82
2022/08/26 06:20:49;;;;;;;37.33;16.83;;;20.40;99.90;;;;;;5064224;28;20032;-82
2022/08/26 06:26:18;;;;;;;36.65;16.27;;;20.50;99.90;;;;;;5018134;28;20064;-82
2022/08/26 06:28:44;;;;;;;49.90;18.15;;;20.50;99.90;;;;;;5050060;28;20575;-82
2022/08/26 06:31:10;;;;;;;39.05;17.65;;;20.50;99.90;;;;;;5061585;28;20216;-83
2022/08/26 06:33:35;;;;;;;38.72;18.30;;;20.50;99.90;;;;;;5057611;28;20060;-82
2022/08/26 06:36:01;;;;;;;37.17;17.58;;;20.60;99.90;;;;;;5060219;28;20025;-82
2022/08/26 06:38:27;;;;;;;43.83;18.50;;;20.60;99.90;;;;;;5066952;28;20035;-83
2022/08/26 06:40:56;;;;;;;64.88;20.23;;;20.70;99.90;;;;;;5061866;28;20051;-83
2022/08/26 06:43:24;;;;;;;44.97;19.00;;;20.70;99.90;;;;;;5066933;28;20025;-82
2022/08/26 06:45:50;;;;;;;45.72;17.65;;;20.70;99.90;;;;;;5054369;28;20025;-83
2022/08/26 06:48:18;;;;;;;46.75;18.67;;;20.80;99.90;;;;;;5060811;28;20104;-83
2022/08/26 06:50:44;;;;;;;45.10;17.80;;;20.80;99.90;;;;;;5061442;28;20029;-83
2022/08/26 06:53:12;;;;;;;38.85;15.05;;;20.90;99.90;;;;;;5054175;28;20529;-83
2022/08/26 06:55:42;;;;;;;28.48;15.82;;;20.90;99.90;;;;;;5061030;28;20024;-83
2022/08/26 06:58:09;;;;;;;30.85;14.70;;;21.00;99.90;;;;;;5060969;28;20024;-83
2022/08/26 07:00:35;;;;;;;32.63;14.73;;;21.10;99.90;;;;;;5062414;28;20597;-83
2022/08/26 07:03:03;;;;;;;40.45;16.13;;;21.20;99.90;;;;;;5059249;28;20504;-83
2022/08/26 07:05:28;;;;;;;37.72;16.23;;;21.20;99.90;;;;;;5054732;28;20056;-83
2022/08/26 07:07:56;;;;;;;33.97;15.77;;;21.30;99.90;;;;;;5062606;28;20052;-83
2022/08/26 07:10:21;;;;;;;47.33;17.33;;;21.40;99.90;;;;;;5063392;28;20539;-83
2022/08/26 07:12:48;;;;;;;43.20;15.88;;;21.50;99.90;;;;;;5060753;28;20040;-83
2022/08/26 07:15:14;;;;;;;48.47;17.92;;;21.60;99.90;;;;;;5068402;28;20108;-83
2022/08/26 07:17:39;;;;;;;60.35;18.08;;;21.60;99.90;;;;;;5061121;28;20115;-83
2022/08/26 07:20:07;;;;;;;56.47;16.70;;;21.80;99.90;;;;;;5060327;28;20021;-83
2022/08/26 07:22:33;;;;;;;44.08;16.98;;;21.80;99.90;;;;;;5060096;28;20036;-83
2022/08/26 07:24:58;;;;;;;58.83;17.42;;;21.90;99.90;;;;;;5061457;28;20023;-83
2022/08/26 07:27:24;;;;;;;53.08;16.50;;;22.00;99.90;;;;;;5061469;28;20029;-84
2022/08/26 07:29:55;;;;;;;46.97;18.33;;;22.10;99.90;;;;;;5062358;28;20033;-83
2022/08/26 07:32:20;;;;;;;62.08;18.17;;;22.20;99.90;;;;;;5057437;28;20032;-84
2022/08/26 07:34:46;;;;;;;41.45;16.55;;;22.30;99.90;;;;;;5060201;28;20025;-84
2022/08/26 07:37:11;;;;;;;57.70;16.70;;;22.40;99.90;;;;;;5059708;28;20051;-83
2022/08/26 07:39:37;;;;;;;65.68;19.00;;;22.60;99.90;;;;;;5058762;28;20060;-84
2022/08/26 07:42:05;;;;;;;52.22;16.20;;;22.60;99.90;;;;;;5061435;28;20041;-83
2022/08/26 07:44:31;;;;;;;50.13;16.52;;;22.70;99.90;;;;;;5055819;28;20033;-84
2022/08/26 07:46:58;;;;;;;50.95;15.75;;;22.80;99.90;;;;;;5061728;28;20495;-84
2022/08/26 07:49:25;;;;;;;52.28;16.92;;;22.90;99.90;;;;;;5052317;28;20029;-85
2022/08/26 07:51:52;;;;;;;53.08;14.68;;;23.00;99.90;;;;;;5059102;28;20040;-84
2022/08/26 07:54:18;;;;;;;59.85;17.33;;;23.00;99.90;;;;;;5065645;28;20497;-84
2022/08/26 07:56:44;;;;;;;54.30;16.08;;;23.10;99.90;;;;;;5058385;28;20017;-84
2022/08/26 07:59:11;;;;;;;43.28;14.88;;;23.10;99.90;;;;;;5058451;28;20541;-84
2022/08/26 08:01:37;;;;;;;46.95;15.55;;;23.10;99.90;;;;;;5061440;28;20025;-84
2022/08/26 08:04:04;;;;;;;44.47;13.82;;;23.10;99.90;;;;;;5065279;28;20492;-84
2022/08/26 08:06:29;;;;;;;40.05;13.82;;;23.20;99.90;;;;;;5057952;28;20040;-84
2022/08/26 08:08:55;;;;;;;43.78;13.38;;;23.30;99.90;;;;;;5062780;28;20384;-84
2022/08/26 08:11:22;;;;;;;43.17;14.10;;;23.30;99.90;;;;;;5065195;28;20032;-84
2022/08/26 08:13:49;;;;;;;56.55;14.77;;;23.30;99.90;;;;;;5060214;28;20044;-84
2022/08/26 08:16:15;;;;;;;40.60;13.38;;;23.40;99.90;;;;;;5061170;28;20028;-84
2022/08/26 08:18:40;;;;;;;50.22;14.10;;;23.50;99.90;;;;;;5063169;28;20029;-84
2022/08/26 08:21:06;;;;;;;43.30;13.85;;;23.50;99.90;;;;;;5058855;28;20017;-84
2022/08/26 08:23:32;;;;;;;59.92;15.50;;;23.60;99.90;;;;;;5064445;28;20444;-85
2022/08/26 08:26:03;;;;;;;40.53;14.82;;;23.70;99.90;;;;;;5061180;28;20020;-84
2022/08/26 08:28:29;;;;;;;60.67;14.38;;;23.80;99.90;;;;;;5053608;28;20546;-83
2022/08/26 08:30:56;;;;;;;34.58;12.95;;;23.70;99.90;;;;;;5061632;28;20040;-85
2022/08/26 08:33:22;;;;;;;36.38;13.07;;;23.80;99.90;;;;;;5052504;28;20033;-85
2022/08/26 08:35:48;;;;;;;49.45;13.93;;;23.90;99.90;;;;;;5057512;28;20305;-85
2022/08/26 08:38:14;;;;;;;43.03;12.77;;;23.90;99.90;;;;;;5055625;28;20025;-88
2022/08/26 08:40:42;;;;;;;42.33;11.95;;;24.00;99.90;;;;;;5066253;28;20032;-88
2022/08/26 08:43:09;;;;;;;44.50;12.68;;;24.10;99.90;;;;;;5055833;28;20036;-85
2022/08/26 08:45:41;;;;;;;43.78;12.00;;;24.20;99.90;;;;;;5056331;28;20074;-84
2022/08/26 08:48:20;;;;;;;36.63;11.27;;;24.20;99.90;;;;;;5055601;28;20024;-84
2022/08/26 08:50:52;;;;;;;42.85;11.55;;;24.20;99.90;;;;;;5058506;28;20055;-84
2022/08/26 08:53:19;;;;;;;55.78;13.73;;;24.20;99.90;;;;;;5057422;28;20048;-85
2022/08/26 08:55:47;;;;;;;45.42;11.98;;;24.30;99.90;;;;;;5057476;28;20025;-84
2022/08/26 08:58:19;;;;;;;43.63;12.32;;;24.40;99.90;;;;;;5060288;28;20036;-85
2022/08/26 09:01:00;;;;;;;53.53;14.10;;;24.40;99.90;;;;;;5055099;28;20047;-86
2022/08/26 09:03:45;;;;;;;60.85;12.57;;;24.50;99.90;;;;;;5058691;28;20503;-84
2022/08/26 09:06:17;;;;;;;38.72;10.88;;;24.60;99.90;;;;;;5054013;28;20017;-85
2022/08/26 09:08:47;;;;;;;38.42;10.85;;;24.60;99.90;;;;;;5059650;28;20017;-84
2022/08/26 09:11:15;;;;;;;60.35;11.32;;;24.70;99.90;;;;;;5057631;28;20104;-84
2022/08/26 09:13:46;;;;;;;49.72;10.85;;;24.70;99.90;;;;;;5056300;28;20033;-84
2022/08/26 09:16:26;;;;;;;47.78;10.73;;;24.70;99.90;;;;;;5064119;28;20107;-86
2022/08/26 09:18:58;;;;;;;52.33;12.40;;;24.70;99.90;;;;;;5057962;28;20124;-86
2022/08/26 09:21:25;;;;;;;52.92;12.43;;;24.80;99.90;;;;;;5060044;28;20247;-87
2022/08/26 09:23:52;;;;;;;46.03;11.35;;;24.80;99.90;;;;;;5058056;28;20079;-85
2022/08/26 09:26:37;;;;;;;58.03;12.82;;;24.90;99.90;;;;;;5054233;28;20120;-84
2022/08/26 09:29:12;;;;;;;32.25;11.82;;;24.90;99.90;;;;;;5064034;28;20082;-87
2022/08/26 09:31:38;;;;;;;50.38;12.32;;;25.00;99.90;;;;;;5066078;28;20032;-86
2022/08/26 09:34:06;;;;;;;46.05;11.98;;;25.00;99.90;;;;;;5061410;28;20035;-86
2022/08/26 09:36:37;;;;;;;51.10;10.98;;;25.10;99.90;;;;;;5058436;28;20025;-85
2022/08/26 09:39:04;;;;;;;47.53;10.10;;;25.20;99.90;;;;;;5057968;28;20074;-87
2022/08/26 09:41:32;;;;;;;45.88;10.65;;;25.20;99.90;;;;;;5061393;28;20027;-85
2022/08/26 09:44:17;;;;;;;59.80;11.70;;;25.30;99.90;;;;;;5060211;28;20037;-86
2022/08/26 09:46:54;;;;;;;51.13;12.17;;;25.30;99.90;;;;;;5061526;28;20133;-85
2022/08/26 09:49:34;;;;;;;51.88;10.30;;;25.30;99.90;;;;;;5062776;28;20033;-86
2022/08/26 09:52:22;;;;;;;51.67;11.35;;;25.30;99.90;;;;;;5060352;28;20440;-86
2022/08/26 09:55:21;;;;;;;45.92;12.05;;;25.40;99.90;;;;;;5067309;28;20515;-86
2022/08/26 09:57:53;;;;;;;46.90;13.05;;;25.40;99.90;;;;;;5052608;28;20047;-86
2022/08/26 10:00:28;;;;;;;48.55;12.05;;;25.50;99.90;;;;;;5067976;28;20103;-86
2022/08/26 10:02:59;;;;;;;58.42;10.90;;;25.60;99.90;;;;;;5060938;28;20033;-85
2022/08/26 10:05:39;;;;;;;52.63;13.57;;;25.60;99.90;;;;;;5064947;28;20392;-86
2022/08/26 10:08:42;;;;;;;46.75;12.63;;;25.60;99.90;;;;;;5063703;28;20021;-86
2022/08/26 10:11:27;;;;;;;39.13;10.10;;;25.70;99.90;;;;;;5061450;28;20020;-85
2022/08/26 10:13:58;;;;;;;35.67;10.20;;;25.80;99.90;;;;;;5066902;28;20045;-86
2022/08/26 10:16:37;;;;;;;39.28;10.23;;;25.90;99.90;;;;;;5067810;28;20025;-87
2022/08/26 10:19:10;;;;;;;48.88;11.10;;;26.00;99.90;;;;;;5064437;28;20034;-86
2022/08/26 10:22:01;;;;;;;47.28;11.13;;;26.00;99.90;;;;;;5059622;28;20051;-86
2022/08/26 10:24:36;;;;;;;44.75;10.88;;;26.10;99.90;;;;;;5063096;28;20029;-85
2022/08/26 10:27:21;;;;;;;45.10;11.30;;;26.20;99.90;;;;;;5059980;28;20102;-87
2022/08/26 10:29:49;;;;;;;33.45;11.05;;;26.20;99.90;;;;;;5064048;28;20032;-86
2022/08/26 10:32:31;;;;;;;30.75;10.95;;;26.20;99.90;;;;;;5054742;28;20027;-86
2022/08/26 10:34:57;;;;;;;47.53;11.30;;;26.30;99.90;;;;;;5059653;28;20077;-86
2022/08/26 10:37:31;;;;;;;29.75;9.48;;;26.40;99.90;;;;;;5062899;28;20032;-84
2022/08/26 10:40:09;;;;;;;58.33;12.15;;;26.50;99.90;;;;;;5063828;28;20024;-83
2022/08/26 10:42:46;;;;;;;57.00;11.40;;;26.50;99.90;;;;;;5060309;28;20056;-83
2022/08/26 10:45:18;;;;;;;50.13;11.00;;;26.60;99.90;;;;;;5060346;28;20029;-84
2022/08/26 10:48:00;;;;;;;35.25;9.05;;;26.70;99.90;;;;;;5065206;28;20799;-85
2022/08/26 10:50:33;;;;;;;45.10;9.65;;;26.70;99.90;;;;;;5063668;28;20480;-86
2022/08/26 10:53:07;;;;;;;51.75;9.90;;;26.70;99.90;;;;;;5056974;28;20057;-86
2022/08/26 10:55:46;;;;;;;30.33;8.95;;;26.70;99.90;;;;;;5057357;28;20047;-86
2022/08/26 10:58:44;;;;;;;36.75;8.43;;;26.70;99.90;;;;;;5052113;28;20033;-85
2022/08/26 11:04:15;;;;;;;30.88;9.57;;;26.80;99.90;;;;;;5060991;28;20035;-85
2022/08/26 11:06:44;;;;;;;32.38;8.85;;;26.70;99.90;;;;;;5056819;28;20040;-86
2022/08/26 11:09:10;;;;;;;38.33;8.98;;;26.80;99.90;;;;;;5057566;28;20021;-85
2022/08/26 11:11:39;;;;;;;40.10;9.65;;;26.90;99.90;;;;;;5057685;28;20110;-86
2022/08/26 11:14:30;;;;;;;30.52;7.88;;;27.10;99.90;;;;;;5051129;28;20631;-86
2022/08/26 11:16:57;;;;;;;28.60;8.57;;;27.20;99.90;;;;;;5056864;28;20039;-86
2022/08/26 11:19:56;;;;;;;37.58;9.77;;;27.30;99.90;;;;;;5055054;28;20488;-85
2022/08/26 11:22:29;;;;;;;19.20;7.30;;;27.50;99.90;;;;;;5060526;28;20519;-86
2022/08/26 11:24:55;;;;;;;36.13;9.45;;;27.60;99.90;;;;;;5059119;28;20424;-90
2022/08/26 11:27:36;;;;;;;41.30;8.88;;;27.60;99.90;;;;;;5061040;28;20043;-86
2022/08/26 11:30:08;;;;;;;43.05;10.05;;;27.60;99.90;;;;;;5058316;28;20029;-88
2022/08/26 11:32:33;;;;;;;38.20;10.52;;;27.50;99.90;;;;;;5056667;28;20029;-87
2022/08/26 11:35:05;;;;;;;34.92;9.02;;;27.50;99.90;;;;;;5058673;28;20128;-85
2022/08/26 11:37:36;;;;;;;32.58;9.40;;;27.50;99.90;;;;;;5060224;28;20055;-85
2022/08/26 11:40:07;;;;;;;37.33;10.18;;;27.50;99.90;;;;;;5056752;28;20024;-85
2022/08/26 11:42:54;;;;;;;39.75;8.93;;;27.40;99.90;;;;;;5058157;28;20128;-86
2022/08/26 11:45:42;;;;;;;32.72;9.25;;;27.30;99.90;;;;;;5060539;28;20028;-86
2022/08/26 11:48:27;;;;;;;19.83;8.02;;;27.10;99.90;;;;;;5057524;28;20017;-85
2022/08/26 11:51:19;;;;;;;22.48;8.82;;;27.00;99.90;;;;;;5060680;28;20032;-86
2022/08/26 11:53:45;;;;;;;34.40;8.13;;;26.90;99.90;;;;;;5054768;28;20059;-85
2022/08/26 11:56:19;;;;;;;32.53;8.82;;;26.80;99.90;;;;;;5054789;28;20020;-85
2022/08/26 11:58:46;;;;;;;34.13;9.73;;;26.80;99.90;;;;;;5056232;28;20044;-85
2022/08/26 12:01:24;;;;;;;35.83;8.43;;;26.80;99.90;;;;;;5058200;28;20029;-86
2022/08/26 12:03:51;;;;;;;38.67;9.48;;;26.90;99.90;;;;;;5058800;28;20025;-85
2022/08/26 12:06:17;;;;;;;36.33;9.10;;;26.90;99.90;;;;;;5067653;28;20103;-84
2022/08/26 12:08:43;;;;;;;34.33;9.13;;;27.00;99.90;;;;;;5060750;28;20451;-86
2022/08/26 12:11:22;;;;;;;29.33;8.63;;;27.00;99.90;;;;;;5063275;28;20024;-85
2022/08/26 12:13:58;;;;;;;43.60;10.02;;;26.90;99.90;;;;;;5061199;28;20043;-87
2022/08/26 12:16:29;;;;;;;28.83;9.75;;;26.90;99.90;;;;;;5053096;28;20029;-86
2022/08/26 12:18:55;;;;;;;28.30;8.65;;;26.80;99.90;;;;;;5054920;28;20863;-85
2022/08/26 12:21:30;;;;;;;35.05;8.43;;;26.70;99.90;;;;;;5056654;28;20033;-86
